createdAt,value
2019-05-10T00:00:08.764Z,1.07
2019-05-10T00:04:32.263Z,1.20
2019-05-10T00:08:50.547Z,1.10
2019-05-10T00:13:13.851Z,1.13
2019-05-10T00:17:20.551Z,1.00
2019-05-10T00:21:24.623Z,1.00
2019-05-10T00:25:28.709Z,1.00
2019-05-10T00:29:32.788Z,1.10
2019-05-10T00:33:36.902Z,1.00
2019-05-10T00:37:40.958Z,0.90
2019-05-10T00:41:46.105Z,1.00
2019-05-10T00:45:50.140Z,0.90
2019-05-10T00:49:54.197Z,1.00
2019-05-10T00:53:58.157Z,1.20
2019-05-10T00:58:03.132Z,1.00
2019-05-10T01:02:07.213Z,0.90
2019-05-10T01:06:11.341Z,1.13
2019-05-10T01:10:15.465Z,1.00
2019-05-10T01:14:19.500Z,1.00
2019-05-10T01:18:23.381Z,0.97
2019-05-10T01:22:27.457Z,0.93
2019-05-10T01:26:31.423Z,1.00
2019-05-10T01:30:35.543Z,1.43
2019-05-10T01:34:39.513Z,1.10
2019-05-10T01:38:43.489Z,1.00
2019-05-10T01:42:47.811Z,1.30
2019-05-10T01:46:54.555Z,1.10
2019-05-10T01:50:58.482Z,1.07
2019-05-10T01:55:02.535Z,1.30
2019-05-10T01:59:06.533Z,1.30
2019-05-10T02:03:10.575Z,1.43
2019-05-10T02:07:14.624Z,1.53
2019-05-10T02:11:18.775Z,1.43
2019-05-10T02:15:22.662Z,1.17
2019-05-10T02:19:26.808Z,1.23
2019-05-10T02:23:30.909Z,1.17
2019-05-10T02:27:34.834Z,1.20
2019-05-10T02:31:38.898Z,1.30
2019-05-10T02:35:43.000Z,1.43
2019-05-10T02:39:47.030Z,1.00
2019-05-10T02:43:50.961Z,1.10
2019-05-10T02:47:54.999Z,1.13
2019-05-10T02:51:59.004Z,1.37
2019-05-10T02:56:04.257Z,1.40
2019-05-10T03:00:08.782Z,1.20
2019-05-10T03:04:13.604Z,1.00
2019-05-10T03:08:17.736Z,1.30
2019-05-10T03:12:23.077Z,1.30
2019-05-10T03:16:28.616Z,1.13
2019-05-10T03:20:33.221Z,1.17
2019-05-10T03:24:37.096Z,1.40
2019-05-10T03:28:41.122Z,1.17
2019-05-10T03:32:45.186Z,1.40
2019-05-10T03:36:49.112Z,1.70
2019-05-10T03:40:53.160Z,1.60
2019-05-10T03:44:57.455Z,1.57
2019-05-10T03:49:01.606Z,1.37
2019-05-10T03:53:05.659Z,1.20
2019-05-10T03:57:13.975Z,1.43
2019-05-10T04:01:15.650Z,1.40
2019-05-10T04:05:19.700Z,1.40
2019-05-10T04:09:23.859Z,1.57
2019-05-10T04:13:27.872Z,1.53
2019-05-10T04:17:31.892Z,1.23
2019-05-10T04:21:35.881Z,1.30
2019-05-10T04:25:39.935Z,1.40
2019-05-10T04:29:44.023Z,1.50
2019-05-10T04:33:48.128Z,1.40
2019-05-10T04:37:52.131Z,1.37
2019-05-10T04:41:56.271Z,1.57
2019-05-10T04:46:00.386Z,1.40
2019-05-10T04:50:04.579Z,1.60
2019-05-10T04:54:08.617Z,1.30
2019-05-10T04:58:12.692Z,1.47
2019-05-10T05:02:21.639Z,1.20
2019-05-10T05:06:22.377Z,1.23
2019-05-10T05:10:26.455Z,1.50
2019-05-10T05:14:30.532Z,1.40
2019-05-10T05:18:34.678Z,1.20
2019-05-10T05:22:38.677Z,1.50
2019-05-10T05:26:42.660Z,1.30
2019-05-10T05:30:46.715Z,1.50
2019-05-10T05:34:51.158Z,1.60
2019-05-10T05:38:56.431Z,1.50
2019-05-10T05:43:02.530Z,1.60
2019-05-10T05:47:06.212Z,1.60
2019-05-10T05:51:11.107Z,1.50
2019-05-10T05:55:15.218Z,1.60
2019-05-10T05:59:23.618Z,1.50
2019-05-10T06:03:29.567Z,1.70
2019-05-10T06:07:31.230Z,1.70
2019-05-10T06:11:37.848Z,1.67
2019-05-10T06:15:42.124Z,1.70
2019-05-10T06:19:46.224Z,1.43
2019-05-10T06:23:50.276Z,1.70
2019-05-10T06:27:54.316Z,1.67
2019-05-10T06:32:00.549Z,1.63
2019-05-10T06:36:04.559Z,1.53
2019-05-10T06:40:09.044Z,1.47
2019-05-10T06:44:14.053Z,1.60
2019-05-10T06:48:25.802Z,1.40
2019-05-10T06:52:27.830Z,1.60
2019-05-10T06:56:29.656Z,1.40
2019-05-10T07:00:38.043Z,1.70
2019-05-10T07:04:41.123Z,1.80
2019-05-10T07:08:45.979Z,1.40
2019-05-10T07:12:50.261Z,1.60
2019-05-10T07:16:56.662Z,1.67
2019-05-10T07:21:00.760Z,1.50
2019-05-10T07:25:07.560Z,1.43
2019-05-10T07:29:11.756Z,1.50
2019-05-10T07:33:15.739Z,1.33
2019-05-10T07:37:19.742Z,1.40
2019-05-10T07:41:26.335Z,1.43
2019-05-10T07:45:30.566Z,1.20
2019-05-10T07:49:34.743Z,1.30
2019-05-10T07:53:38.862Z,1.47
2019-05-10T07:57:42.877Z,1.40
2019-05-10T08:01:49.211Z,1.50
2019-05-10T08:05:56.947Z,2.00
2019-05-10T08:09:59.457Z,1.60
2019-05-10T08:14:05.990Z,1.10
2019-05-10T08:18:09.922Z,1.30
2019-05-10T08:22:15.196Z,1.60
2019-05-10T08:26:22.501Z,2.40
2019-05-10T08:30:33.428Z,1.80
2019-05-10T08:34:39.326Z,3.37
2019-05-10T08:38:46.259Z,2.50
2019-05-10T08:42:54.719Z,2.00
2019-05-10T08:46:54.526Z,1.57
2019-05-10T08:51:05.639Z,1.30
2019-05-10T08:55:06.274Z,1.60
2019-05-10T08:59:16.315Z,1.40
2019-05-10T09:03:18.548Z,1.47
2019-05-10T09:07:23.348Z,1.27
2019-05-10T09:11:27.571Z,1.70
2019-05-10T09:15:33.096Z,1.10
2019-05-10T09:19:41.766Z,1.40
2019-05-10T09:23:42.908Z,1.20
2019-05-10T09:27:46.951Z,1.27
2019-05-10T09:31:53.360Z,1.22
2019-05-10T09:35:59.258Z,1.35
2019-05-10T09:40:09.346Z,1.25
2019-05-10T09:44:08.792Z,1.30
2019-05-10T09:48:13.033Z,1.62
2019-05-10T09:52:18.808Z,1.22
2019-05-10T09:56:22.845Z,1.02
2019-05-10T10:00:31.183Z,0.78
2019-05-10T10:04:37.232Z,0.90
2019-05-10T10:08:43.379Z,0.88
2019-05-10T10:12:47.620Z,0.70
2019-05-10T10:16:58.791Z,0.62
2019-05-10T10:20:57.704Z,0.82
2019-05-10T10:25:01.885Z,0.70
2019-05-10T10:29:07.374Z,0.65
2019-05-10T10:33:17.478Z,0.85
2019-05-10T10:37:22.161Z,0.80
2019-05-10T10:41:31.629Z,0.60
2019-05-10T10:45:30.563Z,0.70
2019-05-10T10:49:34.688Z,0.53
2019-05-10T10:53:38.934Z,0.90
2019-05-10T10:57:43.018Z,1.10
2019-05-10T11:01:52.055Z,0.57
2019-05-10T11:05:52.931Z,0.42
2019-05-10T11:10:08.100Z,0.60
2019-05-10T11:14:07.143Z,0.70
2019-05-10T11:18:09.144Z,0.72
2019-05-10T11:22:13.793Z,0.70
2019-05-10T11:26:18.056Z,0.78
2019-05-10T11:30:22.293Z,0.75
2019-05-10T11:34:31.641Z,0.60
2019-05-10T11:38:32.284Z,0.88
2019-05-10T11:42:37.543Z,0.70
2019-05-10T11:46:42.263Z,0.50
2019-05-10T11:50:46.600Z,0.50
2019-05-10T11:54:51.424Z,0.53
2019-05-10T11:58:55.763Z,1.05
2019-05-10T12:03:07.855Z,0.70
2019-05-10T12:11:27.580Z,0.50
2019-05-10T12:19:23.875Z,0.50
2019-05-10T12:23:31.329Z,0.40
2019-05-10T12:26:05.084Z,0.50
2019-05-10T12:26:31.278Z,0.42
2019-05-10T12:27:44.359Z,4.03
2019-05-10T12:31:41.519Z,26.05
2019-05-10T12:35:47.321Z,11.25
2019-05-10T12:39:53.217Z,2.58
2019-05-10T12:44:04.219Z,1.35
2019-05-10T12:48:03.246Z,0.82
2019-05-10T12:52:09.177Z,0.80
2019-05-10T12:56:13.103Z,0.60
2019-05-10T13:00:17.149Z,1.05
2019-05-10T13:04:24.479Z,0.70
2019-05-10T13:08:27.240Z,0.82
2019-05-10T13:12:31.276Z,0.50
2019-05-10T13:16:35.338Z,0.70
2019-05-10T13:20:39.495Z,0.50
2019-05-10T13:24:43.701Z,0.60
2019-05-10T13:28:47.893Z,0.90
2019-05-10T13:32:58.730Z,0.65
2019-05-10T13:36:57.825Z,0.90
2019-05-10T13:41:02.057Z,0.90
2019-05-10T13:45:06.550Z,0.68
2019-05-10T13:49:13.413Z,0.72
2019-05-10T13:53:21.314Z,0.60
2019-05-10T13:57:23.498Z,0.50
2019-05-10T14:01:27.648Z,0.68
2019-05-10T14:05:31.912Z,0.80
2019-05-10T14:09:36.129Z,0.90
2019-05-10T14:13:41.350Z,0.50
2019-05-10T14:17:46.800Z,0.60
2019-05-10T14:21:50.790Z,0.98
2019-05-10T14:25:54.961Z,0.80
2019-05-10T14:29:58.951Z,0.40
2019-05-10T14:34:18.762Z,0.70
2019-05-10T14:38:10.724Z,0.60
2019-05-10T14:42:14.846Z,0.50
2019-05-10T14:46:18.993Z,0.78
2019-05-10T14:50:26.374Z,0.53
2019-05-10T14:54:42.792Z,0.50
2019-05-10T14:58:35.043Z,0.93
2019-05-10T15:02:39.211Z,1.00
2019-05-10T15:06:43.559Z,0.70
2019-05-10T15:10:47.890Z,0.75
2019-05-10T15:14:52.063Z,1.00
2019-05-10T15:18:56.250Z,0.80
2019-05-10T15:23:00.402Z,0.80
2019-05-10T15:27:04.569Z,1.20
2019-05-10T15:31:08.609Z,1.27
2019-05-10T15:35:12.814Z,0.72
2019-05-10T15:39:16.823Z,0.60
2019-05-10T15:43:20.870Z,0.55
2019-05-10T15:47:25.090Z,12.58
2019-05-10T15:51:36.288Z,2.20
2019-05-10T15:55:35.154Z,0.80
2019-05-10T15:59:39.182Z,0.75
2019-05-10T16:03:43.331Z,0.78
2019-05-10T16:07:51.584Z,0.65
2019-05-10T16:11:56.025Z,0.80
2019-05-10T16:15:59.622Z,0.70
2019-05-10T16:20:04.307Z,0.30
2019-05-10T16:24:08.477Z,0.53
2019-05-10T16:28:15.462Z,0.47
2019-05-10T16:32:18.405Z,0.50
2019-05-10T16:36:22.928Z,0.40
2019-05-10T16:40:28.420Z,0.33
2019-05-10T16:44:32.516Z,0.40
2019-05-10T16:48:38.015Z,0.40
2019-05-10T16:52:44.810Z,0.30
2019-05-10T16:56:51.594Z,0.40
2019-05-10T17:00:54.755Z,0.30
2019-05-10T17:04:59.084Z,0.40
2019-05-10T17:09:09.413Z,0.55
2019-05-10T17:13:10.915Z,0.53
2019-05-10T17:17:15.105Z,0.30
2019-05-10T17:21:19.196Z,0.40
2019-05-10T17:25:23.405Z,0.68
2019-05-10T17:29:27.548Z,0.33
2019-05-10T17:33:31.646Z,0.33
2019-05-10T17:37:37.452Z,0.50
2019-05-10T17:41:42.946Z,0.40
2019-05-10T17:45:47.030Z,0.30
2019-05-10T17:49:51.160Z,0.50
2019-05-10T17:54:01.447Z,0.40
2019-05-10T17:58:01.354Z,0.47
2019-05-10T18:02:05.570Z,0.42
2019-05-10T18:06:23.130Z,0.57
2019-05-10T18:10:15.453Z,0.40
2019-05-10T18:14:19.814Z,0.40
2019-05-10T18:18:24.099Z,0.50
2019-05-10T18:22:28.358Z,0.42
2019-05-10T18:26:34.231Z,0.50
2019-05-10T18:30:38.865Z,2.12
2019-05-10T18:34:43.143Z,1.35
2019-05-10T18:38:47.349Z,4.17
2019-05-10T18:42:51.502Z,1.90
2019-05-10T18:46:55.705Z,3.20
2019-05-10T18:50:59.810Z,2.77
2019-05-10T18:55:04.121Z,1.70
2019-05-10T18:59:09.259Z,1.00
2019-05-10T19:03:13.622Z,0.98
2019-05-10T19:07:17.757Z,0.90
2019-05-10T19:11:22.041Z,0.70
2019-05-10T19:15:26.429Z,0.82
2019-05-10T19:19:35.099Z,0.62
2019-05-10T19:23:36.681Z,0.50
2019-05-10T19:27:44.156Z,0.70
2019-05-10T19:31:46.979Z,0.60
2019-05-10T19:35:51.092Z,0.80
2019-05-10T19:39:55.212Z,0.60
2019-05-10T19:44:02.310Z,1.10
2019-05-10T19:48:06.026Z,0.88
2019-05-10T19:52:10.329Z,1.30
2019-05-10T19:56:14.592Z,1.10
2019-05-10T20:00:18.787Z,1.27
2019-05-10T20:04:23.119Z,1.75
2019-05-10T20:08:27.313Z,2.08
2019-05-10T20:12:31.386Z,1.50
2019-05-10T20:16:50.104Z,1.90
2019-05-10T20:20:41.394Z,2.10
2019-05-10T20:24:45.542Z,2.02
2019-05-10T20:28:49.673Z,2.40
2019-05-10T20:32:53.784Z,2.50
2019-05-10T20:36:58.051Z,2.50
2019-05-10T20:41:02.193Z,2.40
2019-05-10T20:45:08.431Z,3.40
2019-05-10T20:49:12.331Z,2.63
2019-05-10T20:53:19.364Z,3.87
2019-05-10T20:57:23.694Z,4.83
2019-05-10T21:01:27.971Z,4.40
2019-05-10T21:05:32.164Z,4.37
2019-05-10T21:09:36.318Z,5.23
2019-05-10T21:13:40.380Z,4.03
2019-05-10T21:17:48.452Z,3.20
2019-05-10T21:21:52.529Z,2.63
2019-05-10T21:25:58.660Z,2.90
2019-05-10T21:30:02.895Z,2.60
2019-05-10T21:34:09.579Z,3.53
2019-05-10T21:38:12.768Z,4.63
2019-05-10T21:42:16.888Z,6.13
2019-05-10T21:46:21.256Z,6.37
2019-05-10T21:50:25.271Z,6.53
2019-05-10T21:54:29.402Z,8.00
2019-05-10T21:58:33.579Z,7.20
2019-05-10T22:02:37.725Z,7.10
2019-05-10T22:06:41.921Z,8.03
2019-05-10T22:10:45.896Z,4.23
2019-05-10T22:14:49.956Z,6.53
2019-05-10T22:19:02.412Z,5.00
2019-05-10T22:23:06.449Z,3.90
2019-05-10T22:27:10.620Z,6.57
2019-05-10T22:31:14.713Z,7.37
2019-05-10T22:35:18.829Z,6.80
2019-05-10T22:39:22.863Z,5.63
2019-05-10T22:43:26.987Z,5.83
2019-05-10T22:47:31.053Z,6.23
2019-05-10T22:51:35.144Z,7.03
2019-05-10T22:55:39.179Z,7.23
2019-05-10T22:59:43.187Z,6.20
2019-05-10T23:03:47.295Z,5.33
2019-05-10T23:07:51.447Z,8.03
2019-05-10T23:11:55.558Z,8.90
2019-05-10T23:15:59.594Z,7.93
2019-05-10T23:20:03.803Z,7.37
2019-05-10T23:24:07.658Z,5.90
2019-05-10T23:28:11.799Z,4.97
2019-05-10T23:32:15.853Z,6.13
2019-05-10T23:36:19.993Z,8.63
2019-05-10T23:40:24.067Z,6.27
2019-05-10T23:44:28.192Z,13.03
2019-05-10T23:48:32.352Z,5.63
2019-05-10T23:52:36.380Z,4.87
2019-05-10T23:56:41.444Z,4.23
